sensor_id;sensor_type;location;lat;lon;timestamp;pressure;altitude;pressure_sealevel;temperature;humidity
64713;BME280;51140;45.340;5.980;2022-12-08T00:01:33;98913.22;;;1.83;100.00
64713;BME280;51140;45.340;5.980;2022-12-08T00:04:00;98896.97;;;1.80;100.00
64713;BME280;51140;45.340;5.980;2022-12-08T00:06:34;98889.25;;;1.81;100.00
64713;BME280;51140;45.340;5.980;2022-12-08T00:09:33;98883.22;;;1.88;100.00
64713;BME280;51140;45.340;5.980;2022-12-08T00:12:02;98873.78;;;1.92;100.00
64713;BME280;51140;45.340;5.980;2022-12-08T00:14:36;98860.09;;;1.90;100.00
64713;BME280;51140;45.340;5.980;2022-12-08T00:17:04;98858.34;;;1.94;100.00
64713;BME280;51140;45.340;5.980;2022-12-08T00:19:30;98848.06;;;1.97;100.00
64713;BME280;51140;45.340;5.980;2022-12-08T00:21:55;98854.03;;;1.97;100.00
64713;BME280;51140;45.340;5.980;2022-12-08T00:24:23;98842.94;;;1.95;100.00
64713;BME280;51140;45.340;5.980;2022-12-08T00:26:49;98851.50;;;1.93;100.00
64713;BME280;51140;45.340;5.980;2022-12-08T00:29:15;98853.19;;;1.97;100.00
64713;BME280;51140;45.340;5.980;2022-12-08T00:31:41;98852.31;;;1.98;100.00
64713;BME280;51140;45.340;5.980;2022-12-08T00:34:06;98854.03;;;1.99;100.00
64713;BME280;51140;45.340;5.980;2022-12-08T00:36:32;98853.22;;;1.94;100.00
64713;BME280;51140;45.340;5.980;2022-12-08T00:38:58;98854.09;;;1.88;100.00
64713;BME280;51140;45.340;5.980;2022-12-08T00:41:26;98849.81;;;1.90;100.00
64713;BME280;51140;45.340;5.980;2022-12-08T00:44:11;98846.38;;;1.93;100.00
64713;BME280;51140;45.340;5.980;2022-12-08T00:46:37;98851.50;;;1.93;100.00
64713;BME280;51140;45.340;5.980;2022-12-08T00:49:04;98856.66;;;1.91;100.00
64713;BME280;51140;45.340;5.980;2022-12-08T00:51:30;98854.09;;;1.88;100.00
64713;BME280;51140;45.340;5.980;2022-12-08T00:53:55;98856.69;;;1.83;100.00
64713;BME280;51140;45.340;5.980;2022-12-08T00:56:21;98852.44;;;1.82;100.00
64713;BME280;51140;45.340;5.980;2022-12-08T00:58:46;98850.72;;;1.80;100.00
64713;BME280;51140;45.340;5.980;2022-12-08T01:01:12;98854.13;;;1.83;100.00
64713;BME280;51140;45.340;5.980;2022-12-08T01:03:39;98845.56;;;1.84;100.00
64713;BME280;51140;45.340;5.980;2022-12-08T01:06:05;98855.81;;;1.87;100.00
64713;BME280;51140;45.340;5.980;2022-12-08T01:08:31;98854.97;;;1.88;100.00
64713;BME280;51140;45.340;5.980;2022-12-08T01:11:09;98854.97;;;1.88;100.00
64713;BME280;51140;45.340;5.980;2022-12-08T01:13:36;98846.44;;;1.83;100.00
64713;BME280;51140;45.340;5.980;2022-12-08T01:16:02;98849.00;;;1.80;100.00
64713;BME280;51140;45.340;5.980;2022-12-08T01:18:27;98846.44;;;1.83;100.00
64713;BME280;51140;45.340;5.980;2022-12-08T01:20:53;98840.44;;;1.81;100.00
64713;BME280;51140;45.340;5.980;2022-12-08T01:23:18;98840.44;;;1.84;100.00
64713;BME280;51140;45.340;5.980;2022-12-08T01:25:44;98831.00;;;1.83;100.00
64713;BME280;51140;45.340;5.980;2022-12-08T01:28:09;98836.16;;;1.83;100.00
64713;BME280;51140;45.340;5.980;2022-12-08T01:30:37;98830.16;;;1.84;100.00
64713;BME280;51140;45.340;5.980;2022-12-08T01:33:03;98831.88;;;1.81;100.00
64713;BME280;51140;45.340;5.980;2022-12-08T01:35:29;98836.16;;;1.83;100.00
64713;BME280;51140;45.340;5.980;2022-12-08T01:37:54;98842.16;;;1.84;100.00
64713;BME280;51140;45.340;5.980;2022-12-08T01:40:20;98850.69;;;1.86;100.00
64713;BME280;51140;45.340;5.980;2022-12-08T01:42:45;98844.72;;;1.84;100.00
64713;BME280;51140;45.340;5.980;2022-12-08T01:45:30;98839.56;;;1.85;100.00
64713;BME280;51140;45.340;5.980;2022-12-08T01:48:00;98837.84;;;1.84;100.00
64713;BME280;51140;45.340;5.980;2022-12-08T01:50:27;98837.03;;;1.81;100.00
64713;BME280;51140;45.340;5.980;2022-12-08T01:53:25;98838.72;;;1.85;100.00
64713;BME280;51140;45.340;5.980;2022-12-08T01:55:55;98843.00;;;1.86;100.00
64713;BME280;51140;45.340;5.980;2022-12-08T01:58:28;98841.28;;;1.83;100.00
64713;BME280;51140;45.340;5.980;2022-12-08T02:00:55;98846.44;;;1.82;100.00
64713;BME280;51140;45.340;5.980;2022-12-08T02:03:24;98837.03;;;1.79;100.00
64713;BME280;51140;45.340;5.980;2022-12-08T02:05:51;98849.84;;;1.85;100.00
64713;BME280;51140;45.340;5.980;2022-12-08T02:08:17;98839.59;;;1.79;100.00
64713;BME280;51140;45.340;5.980;2022-12-08T02:10:43;98839.59;;;1.79;100.00
64713;BME280;51140;45.340;5.980;2022-12-08T02:13:13;98847.28;;;1.82;100.00
64713;BME280;51140;45.340;5.980;2022-12-08T02:18:43;98841.34;;;1.74;100.00
64713;BME280;51140;45.340;5.980;2022-12-08T02:21:40;98836.22;;;1.74;100.00
64713;BME280;51140;45.340;5.980;2022-12-08T02:35:21;98802.00;;;1.69;100.00
64713;BME280;51140;45.340;5.980;2022-12-08T02:37:58;98803.72;;;1.67;100.00
64713;BME280;51140;45.340;5.980;2022-12-08T02:40:57;98795.13;;;1.71;100.00
64713;BME280;51140;45.340;5.980;2022-12-08T02:43:31;98795.97;;;1.76;100.00
64713;BME280;51140;45.340;5.980;2022-12-08T02:46:01;98787.38;;;1.80;100.00
64713;BME280;51140;45.340;5.980;2022-12-08T02:48:29;98783.09;;;1.81;100.00
64713;BME280;51140;45.340;5.980;2022-12-08T02:50:56;98764.25;;;1.80;100.00
64713;BME280;51140;45.340;5.980;2022-12-08T02:53:22;98767.66;;;1.82;100.00
64713;BME280;51140;45.340;5.980;2022-12-08T03:07:35;98737.72;;;1.77;100.00
64713;BME280;51140;45.340;5.980;2022-12-08T03:10:11;98730.00;;;1.78;100.00
64713;BME280;51140;45.340;5.980;2022-12-08T03:12:44;98727.47;;;1.77;100.00
64713;BME280;51140;45.340;5.980;2022-12-08T03:15:15;98719.75;;;1.75;100.00
64713;BME280;51140;45.340;5.980;2022-12-08T03:17:45;98717.22;;;1.71;100.00
64713;BME280;51140;45.340;5.980;2022-12-08T03:20:17;98712.09;;;1.71;100.00
64713;BME280;51140;45.340;5.980;2022-12-08T03:22:45;98701.91;;;1.62;100.00
64713;BME280;51140;45.340;5.980;2022-12-08T03:25:14;98702.75;;;1.64;100.00
64713;BME280;51140;45.340;5.980;2022-12-08T03:27:40;98705.25;;;1.70;100.00
64713;BME280;51140;45.340;5.980;2022-12-08T03:30:07;98706.09;;;1.70;100.00
64713;BME280;51140;45.340;5.980;2022-12-08T03:35:04;98692.44;;;1.68;100.00
64713;BME280;51140;45.340;5.980;2022-12-08T03:37:30;98685.56;;;1.70;100.00
64713;BME280;51140;45.340;5.980;2022-12-08T03:39:55;98683.00;;;1.70;100.00
64713;BME280;51140;45.340;5.980;2022-12-08T03:42:21;98673.59;;;1.69;100.00
64713;BME280;51140;45.340;5.980;2022-12-08T03:44:47;98663.34;;;1.66;100.00
64713;BME280;51140;45.340;5.980;2022-12-08T03:47:12;98647.09;;;1.63;100.00
64713;BME280;51140;45.340;5.980;2022-12-08T03:49:38;98646.22;;;1.65;100.00
64713;BME280;51140;45.340;5.980;2022-12-08T03:52:03;98623.09;;;1.67;100.00
64713;BME280;51140;45.340;5.980;2022-12-08T03:54:29;98622.25;;;1.68;100.00
64713;BME280;51140;45.340;5.980;2022-12-08T03:56:54;98624.81;;;1.68;100.00
64713;BME280;51140;45.340;5.980;2022-12-08T03:59:20;98599.13;;;1.66;100.00
64713;BME280;51140;45.340;5.980;2022-12-08T04:01:45;98589.72;;;1.65;100.00
64713;BME280;51140;45.340;5.980;2022-12-08T04:04:10;98576.06;;;1.63;100.00
64713;BME280;51140;45.340;5.980;2022-12-08T04:06:36;98580.31;;;1.64;100.00
64713;BME280;51140;45.340;5.980;2022-12-08T04:09:02;98564.09;;;1.62;100.00
64713;BME280;51140;45.340;5.980;2022-12-08T04:11:27;98558.94;;;1.62;100.00
64713;BME280;51140;45.340;5.980;2022-12-08T04:13:53;98555.53;;;1.63;100.00
64713;BME280;51140;45.340;5.980;2022-12-08T04:16:21;98543.53;;;1.62;100.00
64713;BME280;51140;45.340;5.980;2022-12-08T04:18:47;98527.28;;;1.58;100.00
64713;BME280;51140;45.340;5.980;2022-12-08T04:21:12;98523.88;;;1.56;100.00
64713;BME280;51140;45.340;5.980;2022-12-08T04:23:38;98518.75;;;1.55;100.00
64713;BME280;51140;45.340;5.980;2022-12-08T04:26:04;98489.69;;;1.54;100.00
64713;BME280;51140;45.340;5.980;2022-12-08T04:28:29;98478.56;;;1.54;100.00
64713;BME280;51140;45.340;5.980;2022-12-08T04:30:55;98482.81;;;1.55;100.00
64713;BME280;51140;45.340;5.980;2022-12-08T04:33:20;98493.09;;;1.55;100.00
64713;BME280;51140;45.340;5.980;2022-12-08T04:35:45;98495.69;;;1.52;100.00
64713;BME280;51140;45.340;5.980;2022-12-08T04:38:11;98496.53;;;1.52;100.00
64713;BME280;51140;45.340;5.980;2022-12-08T04:40:37;98503.38;;;1.53;100.00
64713;BME280;51140;45.340;5.980;2022-12-08T04:43:02;98505.06;;;1.56;100.00
64713;BME280;51140;45.340;5.980;2022-12-08T04:45:28;98500.78;;;1.55;100.00
64713;BME280;51140;45.340;5.980;2022-12-08T04:47:53;98512.78;;;1.53;100.00
64713;BME280;51140;45.340;5.980;2022-12-08T04:50:18;98500.78;;;1.55;100.00
64713;BME280;51140;45.340;5.980;2022-12-08T04:52:44;98493.97;;;1.52;100.00
64713;BME280;51140;45.340;5.980;2022-12-08T04:55:09;98487.19;;;1.47;100.00
64713;BME280;51140;45.340;5.980;2022-12-08T04:57:35;98483.72;;;1.51;100.00
64713;BME280;51140;45.340;5.980;2022-12-08T05:00:02;98473.44;;;1.51;100.00
64713;BME280;51140;45.340;5.980;2022-12-08T05:02:27;98471.75;;;1.50;100.00
64713;BME280;51140;45.340;5.980;2022-12-08T05:04:53;98470.88;;;1.52;100.00
64713;BME280;51140;45.340;5.980;2022-12-08T05:07:18;98459.78;;;1.49;100.00
64713;BME280;51140;45.340;5.980;2022-12-08T05:09:43;98451.25;;;1.47;100.00
64713;BME280;51140;45.340;5.980;2022-12-08T05:12:09;98448.72;;;1.44;100.00
64713;BME280;51140;45.340;5.980;2022-12-08T05:14:34;98453.84;;;1.45;100.00
64713;BME280;51140;45.340;5.980;2022-12-08T05:17:00;98452.16;;;1.43;100.00
64713;BME280;51140;45.340;5.980;2022-12-08T05:19:25;98453.03;;;1.42;100.00
64713;BME280;51140;45.340;5.980;2022-12-08T05:21:50;98460.69;;;1.43;100.00
64713;BME280;51140;45.340;5.980;2022-12-08T05:24:16;98472.69;;;1.43;100.00
64713;BME280;51140;45.340;5.980;2022-12-08T05:26:41;98459.03;;;1.41;100.00
64713;BME280;51140;45.340;5.980;2022-12-08T05:29:07;98450.44;;;1.43;100.00
64713;BME280;51140;45.340;5.980;2022-12-08T05:31:32;98450.44;;;1.42;100.00
64713;BME280;51140;45.340;5.980;2022-12-08T05:33:58;98432.47;;;1.42;100.00
64713;BME280;51140;45.340;5.980;2022-12-08T05:36:23;98421.38;;;1.41;100.00
64713;BME280;51140;45.340;5.980;2022-12-08T05:38:48;98420.50;;;1.41;100.00
64713;BME280;51140;45.340;5.980;2022-12-08T05:41:19;98429.88;;;1.45;100.00
64713;BME280;51140;45.340;5.980;2022-12-08T05:43:45;98417.97;;;1.39;100.00
64713;BME280;51140;45.340;5.980;2022-12-08T05:46:11;98418.84;;;1.37;100.00
64713;BME280;51140;45.340;5.980;2022-12-08T05:48:38;98434.31;;;1.32;100.00
64713;BME280;51140;45.340;5.980;2022-12-08T05:51:04;98439.50;;;1.24;100.00
64713;BME280;51140;45.340;5.980;2022-12-08T05:53:29;98431.84;;;1.23;100.00
64713;BME280;51140;45.340;5.980;2022-12-08T05:55:55;98427.56;;;1.22;100.00
64713;BME280;51140;45.340;5.980;2022-12-08T05:58:21;98430.13;;;1.19;100.00
64713;BME280;51140;45.340;5.980;2022-12-08T06:00:48;98444.69;;;1.18;100.00
64713;BME280;51140;45.340;5.980;2022-12-08T06:03:15;98437.00;;;1.17;100.00
64713;BME280;51140;45.340;5.980;2022-12-08T06:05:43;98446.44;;;1.13;100.00
64713;BME280;51140;45.340;5.980;2022-12-08T06:08:09;98441.34;;;1.10;100.00
64713;BME280;51140;45.340;5.980;2022-12-08T06:10:37;98436.22;;;1.09;100.00
64713;BME280;51140;45.340;5.980;2022-12-08T06:13:02;98449.94;;;1.06;100.00
64713;BME280;51140;45.340;5.980;2022-12-08T06:15:28;98446.53;;;1.04;100.00
64713;BME280;51140;45.340;5.980;2022-12-08T06:17:53;98445.72;;;1.01;100.00
64713;BME280;51140;45.340;5.980;2022-12-08T06:20:18;98454.25;;;1.01;100.00
64713;BME280;51140;45.340;5.980;2022-12-08T06:22:44;98445.72;;;1.01;100.00
64713;BME280;51140;45.340;5.980;2022-12-08T06:25:09;98454.22;;;1.04;100.00
64713;BME280;51140;45.340;5.980;2022-12-08T06:27:34;98446.53;;;1.04;100.00
64713;BME280;51140;45.340;5.980;2022-12-08T06:30:00;98445.66;;;1.05;100.00
64713;BME280;51140;45.340;5.980;2022-12-08T06:32:25;98453.34;;;1.08;100.00
64713;BME280;51140;45.340;5.980;2022-12-08T06:34:51;98462.72;;;1.09;100.00
64713;BME280;51140;45.340;5.980;2022-12-08T06:37:17;98473.81;;;1.11;100.00
64713;BME280;51140;45.340;5.980;2022-12-08T06:39:42;98481.50;;;1.13;100.00
64713;BME280;51140;45.340;5.980;2022-12-08T06:42:08;98488.34;;;1.14;100.00
64713;BME280;51140;45.340;5.980;2022-12-08T06:44:51;98487.50;;;1.13;100.00
64713;BME280;51140;45.340;5.980;2022-12-08T06:47:19;98492.66;;;1.10;100.00
64713;BME280;51140;45.340;5.980;2022-12-08T06:49:45;98490.94;;;1.12;100.00
64713;BME280;51140;45.340;5.980;2022-12-08T06:52:10;98482.41;;;1.09;100.00
64713;BME280;51140;45.340;5.980;2022-12-08T06:54:35;98483.25;;;1.11;100.00
64713;BME280;51140;45.340;5.980;2022-12-08T06:57:01;98477.25;;;1.10;100.00
64713;BME280;51140;45.340;5.980;2022-12-08T06:59:26;98479.84;;;1.09;100.00
64713;BME280;51140;45.340;5.980;2022-12-08T07:01:51;98476.44;;;1.08;100.00
64713;BME280;51140;45.340;5.980;2022-12-08T07:04:17;98477.25;;;1.12;100.00
64713;BME280;51140;45.340;5.980;2022-12-08T07:06:42;98481.56;;;1.08;100.00
64713;BME280;51140;45.340;5.980;2022-12-08T07:09:08;98479.00;;;1.07;100.00
64713;BME280;51140;45.340;5.980;2022-12-08T07:11:33;98484.97;;;1.07;100.00
64713;BME280;51140;45.340;5.980;2022-12-08T07:13:58;98473.06;;;1.03;100.00
64713;BME280;51140;45.340;5.980;2022-12-08T07:16:24;98479.00;;;1.08;100.00
64713;BME280;51140;45.340;5.980;2022-12-08T07:18:49;98489.25;;;1.08;100.00
64713;BME280;51140;45.340;5.980;2022-12-08T07:21:15;98481.59;;;1.05;100.00
64713;BME280;51140;45.340;5.980;2022-12-08T07:23:44;98496.13;;;1.06;100.00
64713;BME280;51140;45.340;5.980;2022-12-08T07:26:11;98500.34;;;1.10;100.00
64713;BME280;51140;45.340;5.980;2022-12-08T07:28:38;98507.19;;;1.10;100.00
64713;BME280;51140;45.340;5.980;2022-12-08T07:31:04;98509.72;;;1.13;100.00
64713;BME280;51140;45.340;5.980;2022-12-08T07:33:31;98510.56;;;1.16;100.00
64713;BME280;51140;45.340;5.980;2022-12-08T07:35:58;98515.72;;;1.15;100.00
64713;BME280;51140;45.340;5.980;2022-12-08T07:38:24;98506.31;;;1.14;100.00
64713;BME280;51140;45.340;5.980;2022-12-08T07:40:50;98496.91;;;1.13;100.00
64713;BME280;51140;45.340;5.980;2022-12-08T07:43:15;98481.56;;;1.07;100.00
64713;BME280;51140;45.340;5.980;2022-12-08T07:45:41;98482.50;;;0.98;100.00
64713;BME280;51140;45.340;5.980;2022-12-08T07:48:06;98477.47;;;0.86;100.00
64713;BME280;51140;45.340;5.980;2022-12-08T07:50:32;98470.69;;;0.76;100.00
64713;BME280;51140;45.340;5.980;2022-12-08T07:52:58;98475.91;;;0.63;100.00
64713;BME280;51140;45.340;5.980;2022-12-08T07:55:24;98485.34;;;0.58;100.00
64713;BME280;51140;45.340;5.980;2022-12-08T07:57:50;98491.34;;;0.57;100.00
64713;BME280;51140;45.340;5.980;2022-12-08T08:00:16;98489.59;;;0.64;100.00
64713;BME280;51140;45.340;5.980;2022-12-08T08:02:41;98485.25;;;0.71;100.00
64713;BME280;51140;45.340;5.980;2022-12-08T08:05:07;98478.34;;;0.85;100.00
64713;BME280;51140;45.340;5.980;2022-12-08T08:07:33;98478.25;;;0.96;100.00
64713;BME280;51140;45.340;5.980;2022-12-08T08:09:59;98473.03;;;1.05;100.00
64713;BME280;51140;45.340;5.980;2022-12-08T08:12:24;98462.75;;;1.06;100.00
64713;BME280;51140;45.340;5.980;2022-12-08T08:14:50;98449.13;;;1.03;100.00
64713;BME280;51140;45.340;5.980;2022-12-08T08:17:15;98440.66;;;0.91;100.00
64713;BME280;51140;45.340;5.980;2022-12-08T08:19:40;98434.78;;;0.82;100.00
64713;BME280;51140;45.340;5.980;2022-12-08T08:22:06;98437.38;;;0.73;100.00
64713;BME280;51140;45.340;5.980;2022-12-08T08:24:31;98436.50;;;0.81;100.00
64713;BME280;51140;45.340;5.980;2022-12-08T08:26:56;98444.13;;;0.87;100.00
64713;BME280;51140;45.340;5.980;2022-12-08T08:29:22;98439.72;;;1.00;100.00
64713;BME280;51140;45.340;5.980;2022-12-08T08:31:48;98434.44;;;1.15;100.00
64713;BME280;51140;45.340;5.980;2022-12-08T08:34:14;98427.50;;;1.30;100.00
64713;BME280;51140;45.340;5.980;2022-12-08T08:36:39;98425.59;;;1.45;100.00
64713;BME280;51140;45.340;5.980;2022-12-08T08:39:05;98424.56;;;1.63;100.00
64713;BME280;51140;45.340;5.980;2022-12-08T08:41:31;98409.88;;;1.74;100.00
64713;BME280;51140;45.340;5.980;2022-12-08T08:43:56;98396.84;;;1.88;100.00
64713;BME280;51140;45.340;5.980;2022-12-08T08:46:22;98398.31;;;2.07;100.00
64713;BME280;51140;45.340;5.980;2022-12-08T08:48:47;98388.78;;;2.14;100.00
64713;BME280;51140;45.340;5.980;2022-12-08T08:51:13;98381.84;;;2.20;100.00
64713;BME280;51140;45.340;5.980;2022-12-08T08:53:39;98380.31;;;2.09;100.00
64713;BME280;51140;45.340;5.980;2022-12-08T08:56:13;98380.66;;;1.81;100.00
64713;BME280;51140;45.340;5.980;2022-12-08T08:58:39;98400.47;;;1.73;100.00
64713;BME280;51140;45.340;5.980;2022-12-08T09:01:05;98383.50;;;1.58;100.00
64713;BME280;51140;45.340;5.980;2022-12-08T09:03:30;98393.88;;;1.49;100.00
64713;BME280;51140;45.340;5.980;2022-12-08T09:05:56;98397.25;;;1.54;100.00
64713;BME280;51140;45.340;5.980;2022-12-08T09:08:21;98397.16;;;1.65;100.00
64713;BME280;51140;45.340;5.980;2022-12-08T09:10:47;98398.69;;;1.77;100.00
64713;BME280;51140;45.340;5.980;2022-12-08T09:13:12;98398.41;;;1.98;100.00
64713;BME280;51140;45.340;5.980;2022-12-08T09:15:38;98390.69;;;2.01;100.00
64713;BME280;51140;45.340;5.980;2022-12-08T09:18:03;98373.75;;;1.86;100.00
64713;BME280;51140;45.340;5.980;2022-12-08T09:20:31;98370.50;;;1.74;100.00
64713;BME280;51140;45.340;5.980;2022-12-08T09:22:56;98377.38;;;1.72;100.00
64713;BME280;51140;45.340;5.980;2022-12-08T09:25:22;98394.53;;;1.68;100.00
64713;BME280;51140;45.340;5.980;2022-12-08T09:27:47;98395.19;;;1.82;100.00
64713;BME280;51140;45.340;5.980;2022-12-08T09:30:13;98396.00;;;1.87;100.00
64713;BME280;51140;45.340;5.980;2022-12-08T09:32:39;98384.81;;;1.90;100.00
64713;BME280;51140;45.340;5.980;2022-12-08T09:35:05;98387.34;;;1.93;100.00
64713;BME280;51140;45.340;5.980;2022-12-08T09:37:30;98380.59;;;1.86;100.00
64713;BME280;51140;45.340;5.980;2022-12-08T09:39:56;98375.28;;;1.98;100.00
64713;BME280;51140;45.340;5.980;2022-12-08T09:42:48;98360.66;;;2.05;100.00
64713;BME280;51140;45.340;5.980;2022-12-08T09:45:16;98357.84;;;2.20;100.00
64713;BME280;51140;45.340;5.980;2022-12-08T09:47:57;98339.63;;;2.35;100.00
64713;BME280;51140;45.340;5.980;2022-12-08T09:50:41;98342.09;;;2.43;100.00
64713;BME280;51140;45.340;5.980;2022-12-08T09:53:24;98331.44;;;2.64;100.00
64713;BME280;51140;45.340;5.980;2022-12-08T09:56:21;98272.81;;;2.83;100.00
64713;BME280;51140;45.340;5.980;2022-12-08T10:01:18;98159.25;;;3.00;100.00
64713;BME280;51140;45.340;5.980;2022-12-08T10:03:45;98088.88;;;3.02;100.00
64713;BME280;51140;45.340;5.980;2022-12-08T10:08:42;98003.81;;;3.07;100.00
64713;BME280;51140;45.340;5.980;2022-12-08T10:11:19;97942.03;;;3.08;100.00
64713;BME280;51140;45.340;5.980;2022-12-08T10:13:57;97902.06;;;2.95;100.00
64713;BME280;51140;45.340;5.980;2022-12-08T10:16:47;97869.88;;;2.79;100.00
64713;BME280;51140;45.340;5.980;2022-12-08T10:19:19;97860.50;;;2.76;100.00
64713;BME280;51140;45.340;5.980;2022-12-08T10:21:45;97809.63;;;2.55;100.00
64713;BME280;51140;45.340;5.980;2022-12-08T10:24:25;97788.91;;;2.26;100.00
64713;BME280;51140;45.340;5.980;2022-12-08T10:26:50;97777.72;;;2.28;100.00
64713;BME280;51140;45.340;5.980;2022-12-08T10:29:16;97765.63;;;2.32;100.00
64713;BME280;51140;45.340;5.980;2022-12-08T10:31:43;97757.09;;;2.64;100.00
64713;BME280;51140;45.340;5.980;2022-12-08T10:34:15;97743.00;;;3.09;100.00
64713;BME280;51140;45.340;5.980;2022-12-08T10:36:58;97718.25;;;3.35;100.00
64713;BME280;51140;45.340;5.980;2022-12-08T10:44:31;97644.16;;;3.71;100.00
64713;BME280;51140;45.340;5.980;2022-12-08T10:46:56;97636.75;;;3.87;100.00
64713;BME280;51140;45.340;5.980;2022-12-08T10:49:28;97632.34;;;3.90;100.00
64713;BME280;51140;45.340;5.980;2022-12-08T10:51:56;97631.25;;;3.97;100.00
64713;BME280;51140;45.340;5.980;2022-12-08T10:54:36;97638.97;;;3.97;100.00
64713;BME280;51140;45.340;5.980;2022-12-08T10:57:02;97643.94;;;4.03;100.00
64713;BME280;51140;45.340;5.980;2022-12-08T10:59:28;97609.63;;;4.26;100.00
64713;BME280;51140;45.340;5.980;2022-12-08T11:01:58;97617.47;;;4.48;100.00
64713;BME280;51140;45.340;5.980;2022-12-08T11:04:36;97595.63;;;4.33;100.00
64713;BME280;51140;45.340;5.980;2022-12-08T11:07:08;97581.19;;;4.53;100.00
64713;BME280;51140;45.340;5.980;2022-12-08T11:09:41;97570.53;;;4.62;100.00
64713;BME280;51140;45.340;5.980;2022-12-08T11:12:20;97540.84;;;4.73;100.00
64713;BME280;51140;45.340;5.980;2022-12-08T11:14:53;97567.78;;;4.66;100.00
64713;BME280;51140;45.340;5.980;2022-12-08T11:19:55;97532.38;;;4.70;100.00
64713;BME280;51140;45.340;5.980;2022-12-08T11:22:31;97501.91;;;4.58;100.00
64713;BME280;51140;45.340;5.980;2022-12-08T11:25:19;97501.06;;;4.57;100.00
64713;BME280;51140;45.340;5.980;2022-12-08T11:27:49;97538.78;;;4.60;100.00
64713;BME280;51140;45.340;5.980;2022-12-08T11:30:16;97546.41;;;4.63;100.00
64713;BME280;51140;45.340;5.980;2022-12-08T11:32:44;97576.41;;;4.65;100.00
64713;BME280;51140;45.340;5.980;2022-12-08T11:35:18;97565.13;;;4.68;100.00
64713;BME280;51140;45.340;5.980;2022-12-08T11:37:44;97525.41;;;4.50;100.00
64713;BME280;51140;45.340;5.980;2022-12-08T11:40:22;97545.53;;;4.64;100.00
64713;BME280;51140;45.340;5.980;2022-12-08T11:45:27;97528.13;;;4.69;100.00
64713;BME280;51140;45.340;5.980;2022-12-08T11:50:50;97552.34;;;4.88;100.00
64713;BME280;51140;45.340;5.980;2022-12-08T11:53:42;97555.16;;;4.82;100.00
64713;BME280;51140;45.340;5.980;2022-12-08T11:56:28;97540.16;;;4.92;100.00
64713;BME280;51140;45.340;5.980;2022-12-08T11:59:00;97528.69;;;4.99;100.00
64713;BME280;51140;45.340;5.980;2022-12-08T12:01:27;97527.66;;;5.03;100.00
64713;BME280;51140;45.340;5.980;2022-12-08T12:04:17;97478.16;;;4.93;100.00
64713;BME280;51140;45.340;5.980;2022-12-08T12:10:08;97482.03;;;5.03;100.00
64713;BME280;51140;45.340;5.980;2022-12-08T12:13:03;97484.38;;;5.10;100.00
64713;BME280;51140;45.340;5.980;2022-12-08T12:21:16;97388.84;;;4.89;100.00
64713;BME280;51140;45.340;5.980;2022-12-08T12:23:53;97389.00;;;4.86;100.00
64713;BME280;51140;45.340;5.980;2022-12-08T12:26:28;97381.13;;;4.67;100.00
64713;BME280;51140;45.340;5.980;2022-12-08T12:28:57;97401.06;;;4.86;100.00
64713;BME280;51140;45.340;5.980;2022-12-08T12:31:30;97436.28;;;5.07;100.00
64713;BME280;51140;45.340;5.980;2022-12-08T12:34:12;97419.56;;;5.16;100.00
64713;BME280;51140;45.340;5.980;2022-12-08T12:36:50;97413.22;;;5.24;100.00
64713;BME280;51140;45.340;5.980;2022-12-08T12:39:19;97435.63;;;5.24;100.00
64713;BME280;51140;45.340;5.980;2022-12-08T12:41:51;97366.19;;;5.16;100.00
64713;BME280;51140;45.340;5.980;2022-12-08T12:46:57;97351.53;;;5.17;100.00
64713;BME280;51140;45.340;5.980;2022-12-08T12:59:47;97319.78;;;5.54;100.00
64713;BME280;51140;45.340;5.980;2022-12-08T13:02:36;97289.78;;;5.32;100.00
64713;BME280;51140;45.340;5.980;2022-12-08T13:05:22;97311.00;;;5.39;100.00
64713;BME280;51140;45.340;5.980;2022-12-08T13:08:05;97330.69;;;5.42;100.00
64713;BME280;51140;45.340;5.980;2022-12-08T13:10:39;97347.00;;;5.42;100.00
64713;BME280;51140;45.340;5.980;2022-12-08T13:18:14;97323.53;;;5.28;100.00
64713;BME280;51140;45.340;5.980;2022-12-08T13:20:49;97314.22;;;5.44;100.00
64713;BME280;51140;45.340;5.980;2022-12-08T13:26:09;97295.63;;;5.55;100.00
64713;BME280;51140;45.340;5.980;2022-12-08T13:31:46;97298.63;;;5.46;100.00
64713;BME280;51140;45.340;5.980;2022-12-08T13:37:12;97345.63;;;5.15;100.00
64713;BME280;51140;45.340;5.980;2022-12-08T13:45:29;97406.38;;;4.37;100.00
64713;BME280;51140;45.340;5.980;2022-12-08T13:50:17;97483.84;;;4.34;100.00
64713;BME280;51140;45.340;5.980;2022-12-08T13:53:01;97485.28;;;4.43;100.00
64713;BME280;51140;45.340;5.980;2022-12-08T13:55:34;97463.03;;;4.40;100.00
64713;BME280;51140;45.340;5.980;2022-12-08T13:58:02;97446.13;;;4.32;100.00
64713;BME280;51140;45.340;5.980;2022-12-08T14:00:28;97485.88;;;4.50;100.00
64713;BME280;51140;45.340;5.980;2022-12-08T14:02:58;97488.94;;;4.59;100.00
64713;BME280;51140;45.340;5.980;2022-12-08T14:05:26;97501.44;;;4.70;100.00
64713;BME280;51140;45.340;5.980;2022-12-08T14:08:01;97453.31;;;4.69;100.00
64713;BME280;51140;45.340;5.980;2022-12-08T14:10:29;97422.00;;;4.56;100.00
64713;BME280;51140;45.340;5.980;2022-12-08T14:13:10;97436.28;;;4.65;100.00
64713;BME280;51140;45.340;5.980;2022-12-08T14:15:38;97417.63;;;4.58;100.00
64713;BME280;51140;45.340;5.980;2022-12-08T14:18:04;97456.06;;;4.64;100.00
64713;BME280;51140;45.340;5.980;2022-12-08T14:20:32;97491.28;;;4.65;100.00
64713;BME280;51140;45.340;5.980;2022-12-08T14:22:58;97469.56;;;4.49;100.00
64713;BME280;51140;45.340;5.980;2022-12-08T14:25:26;97488.63;;;4.45;100.00
64713;BME280;51140;45.340;5.980;2022-12-08T14:28:02;97504.59;;;4.31;100.00
64713;BME280;51140;45.340;5.980;2022-12-08T14:30:32;97497.44;;;4.16;100.00
64713;BME280;51140;45.340;5.980;2022-12-08T14:33:00;97519.81;;;4.16;100.00
64713;BME280;51140;45.340;5.980;2022-12-08T14:35:29;97509.00;;;4.06;100.00
64713;BME280;51140;45.340;5.980;2022-12-08T14:37:57;97540.81;;;4.05;100.00
64713;BME280;51140;45.340;5.980;2022-12-08T14:40:40;97563.16;;;4.04;100.00